Terminal Aerodrome Forecast
Issued by NWS

Home | Current Version | Previous Version | Text Only | Print | Product List | Glossary On
Versions: 1 2 3 4 5 6 7 8 9 10 11 12 13 14 15 16 17 18 19 20 21 22 23 24 25 26 27 28 29 30
000
FTAK31 PANC 272323
TAFADU
TAF
PADU 272323Z 2800/2824 VRB04KT P6SM VCSH BKN015 OVC022
     FM280600 28007KT P6SM SCT040 BKN100
     FM281500 31008KT P6SM VCSH BKN020=

USA.gov is the U.S. government's official web portal to all federal, state and local government web resources and services.